sensor_id;sensor_type;location;lat;lon;timestamp;P1;durP1;ratioP1;P2;durP2;ratioP2
78840;SDS011;68379;47.190;27.558;2023-08-20T00:01:56;10.10;;;6.00;;
78840;SDS011;68379;47.190;27.558;2023-08-20T00:04:31;7.60;;;6.10;;
78840;SDS011;68379;47.190;27.558;2023-08-20T00:07:06;10.30;;;5.90;;
78840;SDS011;68379;47.190;27.558;2023-08-20T00:09:39;9.50;;;6.20;;
78840;SDS011;68379;47.190;27.558;2023-08-20T00:12:10;10.60;;;6.50;;
78840;SDS011;68379;47.190;27.558;2023-08-20T00:14:55;9.60;;;6.30;;
78840;SDS011;68379;47.190;27.558;2023-08-20T00:17:34;8.70;;;5.70;;
78840;SDS011;68379;47.190;27.558;2023-08-20T00:20:08;13.60;;;6.20;;
78840;SDS011;68379;47.190;27.558;2023-08-20T00:22:42;15.90;;;6.60;;
78840;SDS011;68379;47.190;27.558;2023-08-20T00:25:15;11.20;;;6.90;;
78840;SDS011;68379;47.190;27.558;2023-08-20T00:27:48;12.90;;;7.80;;
78840;SDS011;68379;47.190;27.558;2023-08-20T00:30:20;11.50;;;7.50;;
78840;SDS011;68379;47.190;27.558;2023-08-20T00:32:52;12.00;;;7.20;;
78840;SDS011;68379;47.190;27.558;2023-08-20T00:35:24;15.40;;;7.60;;
78840;SDS011;68379;47.190;27.558;2023-08-20T00:37:56;10.60;;;6.60;;
78840;SDS011;68379;47.190;27.558;2023-08-20T00:40:28;11.70;;;7.10;;
78840;SDS011;68379;47.190;27.558;2023-08-20T00:43:00;12.00;;;6.80;;
78840;SDS011;68379;47.190;27.558;2023-08-20T00:45:32;13.80;;;6.70;;
78840;SDS011;68379;47.190;27.558;2023-08-20T00:48:06;14.30;;;6.80;;
78840;SDS011;68379;47.190;27.558;2023-08-20T00:50:39;15.20;;;6.80;;
78840;SDS011;68379;47.190;27.558;2023-08-20T00:53:11;13.40;;;7.80;;
78840;SDS011;68379;47.190;27.558;2023-08-20T00:55:44;10.30;;;6.50;;
78840;SDS011;68379;47.190;27.558;2023-08-20T00:58:16;9.90;;;6.70;;
78840;SDS011;68379;47.190;27.558;2023-08-20T01:00:48;11.40;;;6.30;;
78840;SDS011;68379;47.190;27.558;2023-08-20T01:03:20;11.90;;;6.30;;
78840;SDS011;68379;47.190;27.558;2023-08-20T01:05:53;10.40;;;6.50;;
78840;SDS011;68379;47.190;27.558;2023-08-20T01:08:33;8.20;;;6.20;;
78840;SDS011;68379;47.190;27.558;2023-08-20T01:11:10;10.90;;;6.70;;
78840;SDS011;68379;47.190;27.558;2023-08-20T01:13:47;10.30;;;6.60;;
78840;SDS011;68379;47.190;27.558;2023-08-20T01:16:19;13.60;;;6.40;;
78840;SDS011;68379;47.190;27.558;2023-08-20T01:18:51;12.80;;;6.50;;
78840;SDS011;68379;47.190;27.558;2023-08-20T01:21:27;12.60;;;6.40;;
78840;SDS011;68379;47.190;27.558;2023-08-20T01:24:14;10.10;;;6.20;;
78840;SDS011;68379;47.190;27.558;2023-08-20T01:27:00;10.30;;;6.10;;
78840;SDS011;68379;47.190;27.558;2023-08-20T01:29:38;9.30;;;5.90;;
78840;SDS011;68379;47.190;27.558;2023-08-20T01:34:42;7.40;;;5.50;;
78840;SDS011;68379;47.190;27.558;2023-08-20T01:37:16;9.10;;;6.30;;
78840;SDS011;68379;47.190;27.558;2023-08-20T01:39:48;9.60;;;6.30;;
78840;SDS011;68379;47.190;27.558;2023-08-20T01:42:20;9.30;;;6.40;;
78840;SDS011;68379;47.190;27.558;2023-08-20T01:44:51;15.50;;;7.30;;
78840;SDS011;68379;47.190;27.558;2023-08-20T01:47:23;11.40;;;7.80;;
78840;SDS011;68379;47.190;27.558;2023-08-20T01:49:55;14.00;;;7.80;;
78840;SDS011;68379;47.190;27.558;2023-08-20T01:52:27;19.40;;;8.50;;
78840;SDS011;68379;47.190;27.558;2023-08-20T01:54:59;13.40;;;7.20;;
78840;SDS011;68379;47.190;27.558;2023-08-20T01:57:31;13.40;;;8.30;;
78840;SDS011;68379;47.190;27.558;2023-08-20T02:00:04;11.80;;;8.90;;
78840;SDS011;68379;47.190;27.558;2023-08-20T02:02:37;15.50;;;8.70;;
78840;SDS011;68379;47.190;27.558;2023-08-20T02:05:09;13.30;;;8.80;;
78840;SDS011;68379;47.190;27.558;2023-08-20T02:07:41;12.80;;;7.90;;
78840;SDS011;68379;47.190;27.558;2023-08-20T02:10:12;12.00;;;7.70;;
78840;SDS011;68379;47.190;27.558;2023-08-20T02:12:45;13.10;;;7.40;;
78840;SDS011;68379;47.190;27.558;2023-08-20T02:15:16;10.80;;;7.70;;
78840;SDS011;68379;47.190;27.558;2023-08-20T02:17:49;14.80;;;8.20;;
78840;SDS011;68379;47.190;27.558;2023-08-20T02:20:20;12.00;;;8.70;;
78840;SDS011;68379;47.190;27.558;2023-08-20T02:22:52;14.00;;;8.50;;
78840;SDS011;68379;47.190;27.558;2023-08-20T02:25:24;10.70;;;8.50;;
78840;SDS011;68379;47.190;27.558;2023-08-20T02:27:56;15.60;;;8.30;;
78840;SDS011;68379;47.190;27.558;2023-08-20T02:30:28;10.20;;;9.10;;
78840;SDS011;68379;47.190;27.558;2023-08-20T02:33:00;12.20;;;7.90;;
78840;SDS011;68379;47.190;27.558;2023-08-20T02:35:32;13.70;;;8.20;;
78840;SDS011;68379;47.190;27.558;2023-08-20T02:38:04;13.80;;;7.90;;
78840;SDS011;68379;47.190;27.558;2023-08-20T02:40:41;12.40;;;8.30;;
78840;SDS011;68379;47.190;27.558;2023-08-20T02:43:13;15.20;;;8.50;;
78840;SDS011;68379;47.190;27.558;2023-08-20T02:45:44;16.80;;;8.40;;
78840;SDS011;68379;47.190;27.558;2023-08-20T02:48:17;14.10;;;8.30;;
78840;SDS011;68379;47.190;27.558;2023-08-20T02:50:49;14.70;;;8.30;;
78840;SDS011;68379;47.190;27.558;2023-08-20T02:53:21;14.80;;;8.90;;
78840;SDS011;68379;47.190;27.558;2023-08-20T02:55:52;16.50;;;8.70;;
78840;SDS011;68379;47.190;27.558;2023-08-20T02:58:24;14.00;;;9.10;;
78840;SDS011;68379;47.190;27.558;2023-08-20T03:00:56;12.70;;;9.40;;
78840;SDS011;68379;47.190;27.558;2023-08-20T03:03:28;18.70;;;10.40;;
78840;SDS011;68379;47.190;27.558;2023-08-20T03:06:00;12.50;;;9.60;;
78840;SDS011;68379;47.190;27.558;2023-08-20T03:08:32;17.50;;;9.20;;
78840;SDS011;68379;47.190;27.558;2023-08-20T03:11:04;11.50;;;8.70;;
78840;SDS011;68379;47.190;27.558;2023-08-20T03:13:36;15.70;;;9.40;;
78840;SDS011;68379;47.190;27.558;2023-08-20T03:16:08;12.30;;;8.90;;
78840;SDS011;68379;47.190;27.558;2023-08-20T03:18:40;15.70;;;9.00;;
78840;SDS011;68379;47.190;27.558;2023-08-20T03:21:11;14.20;;;9.30;;
78840;SDS011;68379;47.190;27.558;2023-08-20T03:23:43;11.80;;;8.80;;
78840;SDS011;68379;47.190;27.558;2023-08-20T03:26:15;15.70;;;9.50;;
78840;SDS011;68379;47.190;27.558;2023-08-20T03:28:48;17.30;;;9.50;;
78840;SDS011;68379;47.190;27.558;2023-08-20T03:31:20;14.70;;;9.50;;
78840;SDS011;68379;47.190;27.558;2023-08-20T03:33:52;17.20;;;9.50;;
78840;SDS011;68379;47.190;27.558;2023-08-20T03:36:24;14.50;;;9.30;;
78840;SDS011;68379;47.190;27.558;2023-08-20T03:38:56;16.30;;;9.00;;
78840;SDS011;68379;47.190;27.558;2023-08-20T03:41:28;12.70;;;9.40;;
78840;SDS011;68379;47.190;27.558;2023-08-20T03:44:00;12.00;;;8.60;;
78840;SDS011;68379;47.190;27.558;2023-08-20T03:46:32;20.80;;;10.20;;
78840;SDS011;68379;47.190;27.558;2023-08-20T03:49:04;17.30;;;9.50;;
78840;SDS011;68379;47.190;27.558;2023-08-20T03:51:36;12.50;;;8.30;;
78840;SDS011;68379;47.190;27.558;2023-08-20T03:54:09;11.50;;;8.40;;
78840;SDS011;68379;47.190;27.558;2023-08-20T03:56:41;12.80;;;7.90;;
78840;SDS011;68379;47.190;27.558;2023-08-20T03:59:13;12.10;;;8.30;;
78840;SDS011;68379;47.190;27.558;2023-08-20T04:01:45;13.80;;;8.70;;
78840;SDS011;68379;47.190;27.558;2023-08-20T04:04:18;15.20;;;9.30;;
78840;SDS011;68379;47.190;27.558;2023-08-20T04:06:50;11.90;;;8.00;;
78840;SDS011;68379;47.190;27.558;2023-08-20T04:09:22;15.70;;;8.30;;
78840;SDS011;68379;47.190;27.558;2023-08-20T04:11:54;14.80;;;8.90;;
78840;SDS011;68379;47.190;27.558;2023-08-20T04:14:26;17.60;;;8.70;;
78840;SDS011;68379;47.190;27.558;2023-08-20T04:16:58;13.10;;;8.90;;
78840;SDS011;68379;47.190;27.558;2023-08-20T04:19:30;13.70;;;8.50;;
78840;SDS011;68379;47.190;27.558;2023-08-20T04:22:02;15.70;;;8.90;;
78840;SDS011;68379;47.190;27.558;2023-08-20T04:24:34;17.20;;;9.20;;
78840;SDS011;68379;47.190;27.558;2023-08-20T04:27:06;16.10;;;8.70;;
78840;SDS011;68379;47.190;27.558;2023-08-20T04:29:38;14.70;;;9.50;;
78840;SDS011;68379;47.190;27.558;2023-08-20T04:32:11;15.40;;;9.50;;
78840;SDS011;68379;47.190;27.558;2023-08-20T04:34:42;15.70;;;9.60;;
78840;SDS011;68379;47.190;27.558;2023-08-20T04:37:16;13.30;;;9.10;;
78840;SDS011;68379;47.190;27.558;2023-08-20T04:39:48;13.50;;;9.60;;
78840;SDS011;68379;47.190;27.558;2023-08-20T04:42:20;11.90;;;8.60;;
78840;SDS011;68379;47.190;27.558;2023-08-20T04:44:52;13.30;;;8.40;;
78840;SDS011;68379;47.190;27.558;2023-08-20T04:47:24;17.60;;;8.60;;
78840;SDS011;68379;47.190;27.558;2023-08-20T04:49:56;13.60;;;10.00;;
78840;SDS011;68379;47.190;27.558;2023-08-20T04:52:27;15.10;;;9.10;;
78840;SDS011;68379;47.190;27.558;2023-08-20T04:54:59;16.40;;;9.90;;
78840;SDS011;68379;47.190;27.558;2023-08-20T04:57:35;17.10;;;9.40;;
78840;SDS011;68379;47.190;27.558;2023-08-20T05:00:08;15.90;;;8.80;;
78840;SDS011;68379;47.190;27.558;2023-08-20T05:02:41;12.10;;;8.60;;
78840;SDS011;68379;47.190;27.558;2023-08-20T05:05:13;11.90;;;8.10;;
78840;SDS011;68379;47.190;27.558;2023-08-20T05:07:45;18.50;;;9.50;;
78840;SDS011;68379;47.190;27.558;2023-08-20T05:10:16;16.00;;;9.00;;
78840;SDS011;68379;47.190;27.558;2023-08-20T05:12:49;13.30;;;9.30;;
78840;SDS011;68379;47.190;27.558;2023-08-20T05:15:21;14.40;;;8.80;;
78840;SDS011;68379;47.190;27.558;2023-08-20T05:17:53;17.60;;;8.90;;
78840;SDS011;68379;47.190;27.558;2023-08-20T05:20:24;13.10;;;8.20;;
78840;SDS011;68379;47.190;27.558;2023-08-20T05:22:56;11.50;;;8.30;;
78840;SDS011;68379;47.190;27.558;2023-08-20T05:25:28;10.40;;;8.60;;
78840;SDS011;68379;47.190;27.558;2023-08-20T05:28:00;9.30;;;7.90;;
78840;SDS011;68379;47.190;27.558;2023-08-20T05:30:32;14.50;;;10.10;;
78840;SDS011;68379;47.190;27.558;2023-08-20T05:33:04;14.70;;;9.20;;
78840;SDS011;68379;47.190;27.558;2023-08-20T05:35:36;12.20;;;8.70;;
78840;SDS011;68379;47.190;27.558;2023-08-20T05:38:08;16.20;;;8.70;;
78840;SDS011;68379;47.190;27.558;2023-08-20T05:40:40;16.30;;;8.80;;
78840;SDS011;68379;47.190;27.558;2023-08-20T05:43:12;14.70;;;9.30;;
78840;SDS011;68379;47.190;27.558;2023-08-20T05:45:43;18.10;;;9.10;;
78840;SDS011;68379;47.190;27.558;2023-08-20T05:48:15;11.40;;;8.50;;
78840;SDS011;68379;47.190;27.558;2023-08-20T05:50:47;11.70;;;8.50;;
78840;SDS011;68379;47.190;27.558;2023-08-20T05:53:19;11.70;;;8.30;;
78840;SDS011;68379;47.190;27.558;2023-08-20T05:55:52;15.20;;;8.20;;
78840;SDS011;68379;47.190;27.558;2023-08-20T05:58:23;16.40;;;8.30;;
78840;SDS011;68379;47.190;27.558;2023-08-20T06:00:55;11.20;;;8.30;;
78840;SDS011;68379;47.190;27.558;2023-08-20T06:03:27;11.70;;;8.10;;
78840;SDS011;68379;47.190;27.558;2023-08-20T06:05:59;11.60;;;9.20;;
78840;SDS011;68379;47.190;27.558;2023-08-20T06:08:31;11.70;;;8.20;;
78840;SDS011;68379;47.190;27.558;2023-08-20T06:11:03;9.90;;;7.90;;
78840;SDS011;68379;47.190;27.558;2023-08-20T06:13:35;10.70;;;8.50;;
78840;SDS011;68379;47.190;27.558;2023-08-20T06:16:06;12.10;;;8.40;;
78840;SDS011;68379;47.190;27.558;2023-08-20T06:18:38;13.00;;;8.20;;
78840;SDS011;68379;47.190;27.558;2023-08-20T06:21:10;12.00;;;8.10;;
78840;SDS011;68379;47.190;27.558;2023-08-20T06:23:42;10.40;;;8.10;;
78840;SDS011;68379;47.190;27.558;2023-08-20T06:26:14;12.40;;;8.10;;
78840;SDS011;68379;47.190;27.558;2023-08-20T06:28:47;11.30;;;8.90;;
78840;SDS011;68379;47.190;27.558;2023-08-20T06:31:19;14.50;;;10.20;;
78840;SDS011;68379;47.190;27.558;2023-08-20T06:33:52;12.90;;;8.90;;
78840;SDS011;68379;47.190;27.558;2023-08-20T06:36:23;9.30;;;7.70;;
78840;SDS011;68379;47.190;27.558;2023-08-20T06:38:55;13.20;;;8.30;;
78840;SDS011;68379;47.190;27.558;2023-08-20T06:41:27;13.40;;;8.40;;
78840;SDS011;68379;47.190;27.558;2023-08-20T06:43:59;13.20;;;8.40;;
78840;SDS011;68379;47.190;27.558;2023-08-20T06:46:31;12.00;;;8.60;;
78840;SDS011;68379;47.190;27.558;2023-08-20T06:49:04;10.20;;;7.90;;
78840;SDS011;68379;47.190;27.558;2023-08-20T06:51:35;12.80;;;8.30;;
78840;SDS011;68379;47.190;27.558;2023-08-20T06:54:07;11.20;;;8.50;;
78840;SDS011;68379;47.190;27.558;2023-08-20T06:56:39;10.60;;;8.00;;
78840;SDS011;68379;47.190;27.558;2023-08-20T06:59:11;10.10;;;7.90;;
78840;SDS011;68379;47.190;27.558;2023-08-20T07:01:43;11.10;;;8.20;;
78840;SDS011;68379;47.190;27.558;2023-08-20T07:04:15;12.80;;;8.40;;
78840;SDS011;68379;47.190;27.558;2023-08-20T07:06:47;11.80;;;8.30;;
78840;SDS011;68379;47.190;27.558;2023-08-20T07:11:50;14.40;;;7.70;;
78840;SDS011;68379;47.190;27.558;2023-08-20T07:14:22;9.20;;;8.00;;
78840;SDS011;68379;47.190;27.558;2023-08-20T07:16:53;11.70;;;8.10;;
78840;SDS011;68379;47.190;27.558;2023-08-20T07:19:25;10.10;;;8.20;;
78840;SDS011;68379;47.190;27.558;2023-08-20T07:21:57;14.30;;;8.10;;
78840;SDS011;68379;47.190;27.558;2023-08-20T07:24:29;11.30;;;7.50;;
78840;SDS011;68379;47.190;27.558;2023-08-20T07:27:03;11.50;;;8.60;;
78840;SDS011;68379;47.190;27.558;2023-08-20T07:29:41;13.70;;;7.50;;
78840;SDS011;68379;47.190;27.558;2023-08-20T07:32:12;9.70;;;8.00;;
78840;SDS011;68379;47.190;27.558;2023-08-20T07:34:44;12.60;;;7.90;;
78840;SDS011;68379;47.190;27.558;2023-08-20T07:37:16;11.60;;;8.00;;
78840;SDS011;68379;47.190;27.558;2023-08-20T07:39:48;10.80;;;7.70;;
78840;SDS011;68379;47.190;27.558;2023-08-20T07:42:20;9.50;;;8.40;;
78840;SDS011;68379;47.190;27.558;2023-08-20T07:44:51;8.70;;;7.80;;
78840;SDS011;68379;47.190;27.558;2023-08-20T07:47:23;9.50;;;7.30;;
78840;SDS011;68379;47.190;27.558;2023-08-20T07:49:57;13.50;;;8.20;;
78840;SDS011;68379;47.190;27.558;2023-08-20T07:52:29;9.80;;;7.50;;
78840;SDS011;68379;47.190;27.558;2023-08-20T07:55:01;10.90;;;8.20;;
78840;SDS011;68379;47.190;27.558;2023-08-20T07:57:33;10.00;;;7.40;;
78840;SDS011;68379;47.190;27.558;2023-08-20T08:00:05;7.40;;;6.40;;
78840;SDS011;68379;47.190;27.558;2023-08-20T08:02:38;10.70;;;7.80;;
78840;SDS011;68379;47.190;27.558;2023-08-20T08:05:10;9.50;;;7.30;;
78840;SDS011;68379;47.190;27.558;2023-08-20T08:07:42;11.60;;;7.70;;
78840;SDS011;68379;47.190;27.558;2023-08-20T08:10:14;11.20;;;7.30;;
78840;SDS011;68379;47.190;27.558;2023-08-20T08:12:46;9.10;;;7.20;;
78840;SDS011;68379;47.190;27.558;2023-08-20T08:15:18;8.50;;;7.40;;
78840;SDS011;68379;47.190;27.558;2023-08-20T08:17:50;10.60;;;7.80;;
78840;SDS011;68379;47.190;27.558;2023-08-20T08:20:22;13.70;;;6.80;;
78840;SDS011;68379;47.190;27.558;2023-08-20T08:22:53;11.40;;;7.00;;
78840;SDS011;68379;47.190;27.558;2023-08-20T08:25:25;9.60;;;6.60;;
78840;SDS011;68379;47.190;27.558;2023-08-20T08:27:57;9.50;;;7.50;;
78840;SDS011;68379;47.190;27.558;2023-08-20T08:30:29;12.90;;;7.10;;
78840;SDS011;68379;47.190;27.558;2023-08-20T08:33:00;8.70;;;7.60;;
78840;SDS011;68379;47.190;27.558;2023-08-20T08:35:32;9.80;;;7.50;;
78840;SDS011;68379;47.190;27.558;2023-08-20T08:38:04;9.90;;;6.70;;
78840;SDS011;68379;47.190;27.558;2023-08-20T08:40:36;8.70;;;6.70;;
78840;SDS011;68379;47.190;27.558;2023-08-20T08:43:12;8.30;;;6.90;;
78840;SDS011;68379;47.190;27.558;2023-08-20T08:45:46;9.30;;;7.80;;
78840;SDS011;68379;47.190;27.558;2023-08-20T08:48:18;8.40;;;7.50;;
78840;SDS011;68379;47.190;27.558;2023-08-20T08:53:22;7.90;;;7.10;;
78840;SDS011;68379;47.190;27.558;2023-08-20T08:55:55;13.10;;;8.40;;
78840;SDS011;68379;47.190;27.558;2023-08-20T08:58:27;10.30;;;7.50;;
78840;SDS011;68379;47.190;27.558;2023-08-20T09:00:59;8.50;;;7.10;;
78840;SDS011;68379;47.190;27.558;2023-08-20T09:03:32;9.30;;;7.10;;
78840;SDS011;68379;47.190;27.558;2023-08-20T09:06:08;10.90;;;7.10;;
78840;SDS011;68379;47.190;27.558;2023-08-20T09:08:41;8.50;;;7.20;;
78840;SDS011;68379;47.190;27.558;2023-08-20T09:11:12;9.30;;;7.40;;
78840;SDS011;68379;47.190;27.558;2023-08-20T09:13:44;7.50;;;6.70;;
78840;SDS011;68379;47.190;27.558;2023-08-20T09:16:16;5.80;;;5.20;;
78840;SDS011;68379;47.190;27.558;2023-08-20T09:18:48;6.20;;;5.60;;
78840;SDS011;68379;47.190;27.558;2023-08-20T09:21:20;7.20;;;5.80;;
78840;SDS011;68379;47.190;27.558;2023-08-20T09:24:00;8.80;;;6.20;;
78840;SDS011;68379;47.190;27.558;2023-08-20T09:26:34;7.20;;;6.30;;
78840;SDS011;68379;47.190;27.558;2023-08-20T09:29:05;7.40;;;5.90;;
78840;SDS011;68379;47.190;27.558;2023-08-20T09:31:40;7.40;;;5.80;;
78840;SDS011;68379;47.190;27.558;2023-08-20T09:34:15;9.20;;;6.50;;
78840;SDS011;68379;47.190;27.558;2023-08-20T09:36:47;10.30;;;6.70;;
78840;SDS011;68379;47.190;27.558;2023-08-20T09:39:18;9.40;;;6.00;;
78840;SDS011;68379;47.190;27.558;2023-08-20T09:41:50;7.50;;;6.60;;
78840;SDS011;68379;47.190;27.558;2023-08-20T09:44:22;10.00;;;6.40;;
78840;SDS011;68379;47.190;27.558;2023-08-20T09:46:58;7.30;;;6.50;;
78840;SDS011;68379;47.190;27.558;2023-08-20T09:49:32;9.30;;;6.40;;
78840;SDS011;68379;47.190;27.558;2023-08-20T09:52:06;8.40;;;6.70;;
78840;SDS011;68379;47.190;27.558;2023-08-20T09:57:32;6.90;;;6.20;;
78840;SDS011;68379;47.190;27.558;2023-08-20T10:00:07;7.10;;;5.90;;
78840;SDS011;68379;47.190;27.558;2023-08-20T10:02:40;8.10;;;5.80;;
78840;SDS011;68379;47.190;27.558;2023-08-20T10:07:44;9.60;;;6.60;;
78840;SDS011;68379;47.190;27.558;2023-08-20T10:10:17;7.50;;;6.30;;
78840;SDS011;68379;47.190;27.558;2023-08-20T10:12:49;7.50;;;6.50;;
78840;SDS011;68379;47.190;27.558;2023-08-20T10:15:22;6.70;;;6.00;;
78840;SDS011;68379;47.190;27.558;2023-08-20T10:17:55;6.40;;;5.40;;
78840;SDS011;68379;47.190;27.558;2023-08-20T10:20:29;6.50;;;5.90;;
78840;SDS011;68379;47.190;27.558;2023-08-20T10:23:02;9.50;;;6.10;;
78840;SDS011;68379;47.190;27.558;2023-08-20T10:25:40;10.10;;;6.00;;
78840;SDS011;68379;47.190;27.558;2023-08-20T10:28:20;8.40;;;6.70;;
78840;SDS011;68379;47.190;27.558;2023-08-20T10:31:07;8.90;;;6.40;;
78840;SDS011;68379;47.190;27.558;2023-08-20T10:33:48;9.50;;;6.20;;
78840;SDS011;68379;47.190;27.558;2023-08-20T10:36:24;6.30;;;5.70;;
78840;SDS011;68379;47.190;27.558;2023-08-20T10:38:57;7.20;;;5.90;;
78840;SDS011;68379;47.190;27.558;2023-08-20T10:41:51;7.00;;;5.80;;
78840;SDS011;68379;47.190;27.558;2023-08-20T10:45:05;6.60;;;6.00;;
78840;SDS011;68379;47.190;27.558;2023-08-20T10:47:43;7.30;;;6.20;;
78840;SDS011;68379;47.190;27.558;2023-08-20T10:50:17;6.40;;;5.80;;
78840;SDS011;68379;47.190;27.558;2023-08-20T10:52:49;6.70;;;5.80;;
78840;SDS011;68379;47.190;27.558;2023-08-20T10:55:25;7.00;;;5.50;;
78840;SDS011;68379;47.190;27.558;2023-08-20T10:57:57;6.30;;;5.40;;
78840;SDS011;68379;47.190;27.558;2023-08-20T11:00:30;8.90;;;5.10;;
78840;SDS011;68379;47.190;27.558;2023-08-20T11:03:04;10.10;;;5.70;;
78840;SDS011;68379;47.190;27.558;2023-08-20T11:05:37;6.30;;;5.60;;
78840;SDS011;68379;47.190;27.558;2023-08-20T11:08:09;6.60;;;5.10;;
78840;SDS011;68379;47.190;27.558;2023-08-20T11:10:41;7.00;;;5.40;;
78840;SDS011;68379;47.190;27.558;2023-08-20T11:13:14;7.40;;;5.80;;
78840;SDS011;68379;47.190;27.558;2023-08-20T11:15:46;7.40;;;5.70;;
78840;SDS011;68379;47.190;27.558;2023-08-20T11:18:18;6.90;;;5.80;;
78840;SDS011;68379;47.190;27.558;2023-08-20T11:20:49;6.60;;;5.70;;
78840;SDS011;68379;47.190;27.558;2023-08-20T11:23:21;6.10;;;5.50;;
78840;SDS011;68379;47.190;27.558;2023-08-20T11:25:54;8.10;;;5.80;;
78840;SDS011;68379;47.190;27.558;2023-08-20T11:33:26;6.70;;;5.70;;
78840;SDS011;68379;47.190;27.558;2023-08-20T11:35:58;8.00;;;5.40;;
78840;SDS011;68379;47.190;27.558;2023-08-20T11:38:30;6.10;;;5.50;;
78840;SDS011;68379;47.190;27.558;2023-08-20T11:41:02;7.00;;;5.30;;
78840;SDS011;68379;47.190;27.558;2023-08-20T11:43:34;6.40;;;4.90;;
78840;SDS011;68379;47.190;27.558;2023-08-20T11:46:12;8.30;;;5.90;;
78840;SDS011;68379;47.190;27.558;2023-08-20T11:51:34;8.40;;;4.90;;
78840;SDS011;68379;47.190;27.558;2023-08-20T11:54:07;6.00;;;5.00;;
78840;SDS011;68379;47.190;27.558;2023-08-20T11:56:42;6.50;;;5.90;;
78840;SDS011;68379;47.190;27.558;2023-08-20T11:59:15;7.10;;;5.70;;
78840;SDS011;68379;47.190;27.558;2023-08-20T12:01:51;7.40;;;5.30;;
78840;SDS011;68379;47.190;27.558;2023-08-20T12:04:25;6.90;;;6.20;;
78840;SDS011;68379;47.190;27.558;2023-08-20T12:07:08;7.50;;;6.20;;
78840;SDS011;68379;47.190;27.558;2023-08-20T12:09:45;6.50;;;5.50;;
78840;SDS011;68379;47.190;27.558;2023-08-20T12:12:17;6.10;;;5.50;;
78840;SDS011;68379;47.190;27.558;2023-08-20T12:14:51;8.70;;;5.30;;
78840;SDS011;68379;47.190;27.558;2023-08-20T12:17:23;7.00;;;5.30;;
78840;SDS011;68379;47.190;27.558;2023-08-20T12:19:55;5.80;;;5.10;;
78840;SDS011;68379;47.190;27.558;2023-08-20T12:22:27;7.30;;;4.50;;
78840;SDS011;68379;47.190;27.558;2023-08-20T12:24:59;7.50;;;5.60;;
78840;SDS011;68379;47.190;27.558;2023-08-20T12:27:31;5.30;;;4.80;;
78840;SDS011;68379;47.190;27.558;2023-08-20T12:30:05;6.40;;;5.30;;
78840;SDS011;68379;47.190;27.558;2023-08-20T12:32:38;6.70;;;5.20;;
78840;SDS011;68379;47.190;27.558;2023-08-20T12:35:10;5.70;;;5.10;;
78840;SDS011;68379;47.190;27.558;2023-08-20T12:37:42;7.80;;;6.00;;
78840;SDS011;68379;47.190;27.558;2023-08-20T12:40:14;5.50;;;4.90;;
78840;SDS011;68379;47.190;27.558;2023-08-20T12:42:46;8.10;;;5.10;;
78840;SDS011;68379;47.190;27.558;2023-08-20T12:45:18;5.90;;;4.60;;
78840;SDS011;68379;47.190;27.558;2023-08-20T12:47:50;5.90;;;4.80;;
78840;SDS011;68379;47.190;27.558;2023-08-20T12:50:23;5.30;;;4.80;;
78840;SDS011;68379;47.190;27.558;2023-08-20T12:52:55;5.50;;;5.00;;
78840;SDS011;68379;47.190;27.558;2023-08-20T12:55:27;5.80;;;4.80;;
78840;SDS011;68379;47.190;27.558;2023-08-20T12:57:59;5.80;;;5.10;;
78840;SDS011;68379;47.190;27.558;2023-08-20T13:00:30;5.40;;;4.60;;
78840;SDS011;68379;47.190;27.558;2023-08-20T13:03:03;5.50;;;4.50;;
78840;SDS011;68379;47.190;27.558;2023-08-20T13:05:37;5.50;;;4.90;;
78840;SDS011;68379;47.190;27.558;2023-08-20T13:08:10;9.70;;;5.00;;
78840;SDS011;68379;47.190;27.558;2023-08-20T13:10:43;5.90;;;4.60;;
78840;SDS011;68379;47.190;27.558;2023-08-20T13:13:20;6.80;;;4.90;;
78840;SDS011;68379;47.190;27.558;2023-08-20T13:15:53;5.60;;;5.10;;
78840;SDS011;68379;47.190;27.558;2023-08-20T13:18:26;5.20;;;4.70;;
78840;SDS011;68379;47.190;27.558;2023-08-20T13:21:00;6.00;;;4.10;;
78840;SDS011;68379;47.190;27.558;2023-08-20T13:23:33;5.00;;;4.20;;
78840;SDS011;68379;47.190;27.558;2023-08-20T13:26:05;6.60;;;4.40;;
78840;SDS011;68379;47.190;27.558;2023-08-20T13:28:37;5.10;;;4.60;;
78840;SDS011;68379;47.190;27.558;2023-08-20T13:31:08;6.30;;;4.80;;
78840;SDS011;68379;47.190;27.558;2023-08-20T13:33:40;5.40;;;4.20;;
78840;SDS011;68379;47.190;27.558;2023-08-20T13:36:12;6.50;;;5.00;;
78840;SDS011;68379;47.190;27.558;2023-08-20T13:38:44;5.40;;;4.90;;
78840;SDS011;68379;47.190;27.558;2023-08-20T13:41:15;5.30;;;4.60;;
78840;SDS011;68379;47.190;27.558;2023-08-20T13:43:47;5.40;;;4.70;;
78840;SDS011;68379;47.190;27.558;2023-08-20T13:46:19;5.60;;;5.00;;
78840;SDS011;68379;47.190;27.558;2023-08-20T13:48:51;5.90;;;4.80;;
78840;SDS011;68379;47.190;27.558;2023-08-20T13:51:23;5.20;;;4.30;;
78840;SDS011;68379;47.190;27.558;2023-08-20T13:53:55;7.30;;;5.00;;
78840;SDS011;68379;47.190;27.558;2023-08-20T13:56:27;5.40;;;4.50;;
78840;SDS011;68379;47.190;27.558;2023-08-20T13:58:59;4.60;;;4.10;;
78840;SDS011;68379;47.190;27.558;2023-08-20T14:04:01;5.00;;;4.20;;
78840;SDS011;68379;47.190;27.558;2023-08-20T14:06:33;5.10;;;4.40;;
78840;SDS011;68379;47.190;27.558;2023-08-20T14:09:05;5.70;;;4.60;;
78840;SDS011;68379;47.190;27.558;2023-08-20T14:11:37;8.20;;;4.20;;
78840;SDS011;68379;47.190;27.558;2023-08-20T14:14:09;5.50;;;4.10;;
78840;SDS011;68379;47.190;27.558;2023-08-20T14:16:41;4.80;;;4.30;;
78840;SDS011;68379;47.190;27.558;2023-08-20T14:19:12;6.10;;;4.50;;
78840;SDS011;68379;47.190;27.558;2023-08-20T14:21:44;5.80;;;4.20;;
78840;SDS011;68379;47.190;27.558;2023-08-20T14:24:16;5.00;;;4.50;;
78840;SDS011;68379;47.190;27.558;2023-08-20T14:26:48;7.60;;;4.40;;
78840;SDS011;68379;47.190;27.558;2023-08-20T14:29:20;5.00;;;4.40;;
78840;SDS011;68379;47.190;27.558;2023-08-20T14:31:51;5.00;;;4.50;;
78840;SDS011;68379;47.190;27.558;2023-08-20T14:34:23;9.30;;;4.60;;
78840;SDS011;68379;47.190;27.558;2023-08-20T14:36:55;4.70;;;4.00;;
78840;SDS011;68379;47.190;27.558;2023-08-20T14:39:27;5.90;;;4.20;;
78840;SDS011;68379;47.190;27.558;2023-08-20T14:42:00;5.20;;;4.30;;
78840;SDS011;68379;47.190;27.558;2023-08-20T14:44:32;5.30;;;4.30;;
78840;SDS011;68379;47.190;27.558;2023-08-20T14:47:04;5.70;;;4.20;;
78840;SDS011;68379;47.190;27.558;2023-08-20T14:49:36;6.60;;;4.60;;
78840;SDS011;68379;47.190;27.558;2023-08-20T14:52:08;5.60;;;4.50;;
78840;SDS011;68379;47.190;27.558;2023-08-20T14:54:39;4.40;;;4.00;;
78840;SDS011;68379;47.190;27.558;2023-08-20T14:57:11;5.00;;;4.10;;
78840;SDS011;68379;47.190;27.558;2023-08-20T14:59:45;4.70;;;3.90;;
78840;SDS011;68379;47.190;27.558;2023-08-20T15:02:17;4.90;;;4.20;;
78840;SDS011;68379;47.190;27.558;2023-08-20T15:04:49;6.20;;;4.30;;
78840;SDS011;68379;47.190;27.558;2023-08-20T15:07:21;6.20;;;4.10;;
78840;SDS011;68379;47.190;27.558;2023-08-20T15:09:53;4.70;;;4.30;;
78840;SDS011;68379;47.190;27.558;2023-08-20T15:12:25;5.80;;;4.40;;
78840;SDS011;68379;47.190;27.558;2023-08-20T15:14:57;5.00;;;4.50;;
78840;SDS011;68379;47.190;27.558;2023-08-20T15:19:59;5.00;;;4.20;;
78840;SDS011;68379;47.190;27.558;2023-08-20T15:22:33;4.80;;;3.90;;
78840;SDS011;68379;47.190;27.558;2023-08-20T15:25:05;4.20;;;3.70;;
78840;SDS011;68379;47.190;27.558;2023-08-20T15:27:39;5.40;;;3.80;;